sensor_id;sensor_type;location;lat;lon;timestamp;temperature;humidity
62904;DHT22;49000;50.698;13.322;2024-03-17T00:00:44;2.80;1.00
62904;DHT22;49000;50.698;13.322;2024-03-17T00:03:10;2.70;1.00
62904;DHT22;49000;50.698;13.322;2024-03-17T00:05:36;3.10;1.00
62904;DHT22;49000;50.698;13.322;2024-03-17T00:08:02;3.10;1.00
62904;DHT22;49000;50.698;13.322;2024-03-17T00:10:30;2.70;2.70
62904;DHT22;49000;50.698;13.322;2024-03-17T00:12:56;2.80;5.90
62904;DHT22;49000;50.698;13.322;2024-03-17T00:15:22;3.00;7.50
62904;DHT22;49000;50.698;13.322;2024-03-17T00:17:48;2.60;11.30
62904;DHT22;49000;50.698;13.322;2024-03-17T00:20:13;3.00;14.00
62904;DHT22;49000;50.698;13.322;2024-03-17T00:22:46;3.20;12.00
62904;DHT22;49000;50.698;13.322;2024-03-17T00:25:12;3.10;14.50
62904;DHT22;49000;50.698;13.322;2024-03-17T00:27:37;2.80;15.60
62904;DHT22;49000;50.698;13.322;2024-03-17T00:30:07;3.20;15.60
62904;DHT22;49000;50.698;13.322;2024-03-17T00:32:38;3.20;15.60
62904;DHT22;49000;50.698;13.322;2024-03-17T00:35:05;3.20;16.60
62904;DHT22;49000;50.698;13.322;2024-03-17T00:37:31;3.30;15.20
62904;DHT22;49000;50.698;13.322;2024-03-17T00:39:56;3.50;13.50
62904;DHT22;49000;50.698;13.322;2024-03-17T00:42:23;3.30;15.10
62904;DHT22;49000;50.698;13.322;2024-03-17T00:44:48;2.80;16.80
62904;DHT22;49000;50.698;13.322;2024-03-17T00:47:13;2.80;14.30
62904;DHT22;49000;50.698;13.322;2024-03-17T00:49:39;2.90;4.20
62904;DHT22;49000;50.698;13.322;2024-03-17T00:52:05;3.20;4.20
62904;DHT22;49000;50.698;13.322;2024-03-17T00:54:31;3.30;3.10
62904;DHT22;49000;50.698;13.322;2024-03-17T00:56:56;3.10;1.00
62904;DHT22;49000;50.698;13.322;2024-03-17T00:59:22;3.50;2.70
62904;DHT22;49000;50.698;13.322;2024-03-17T01:01:47;2.90;1.00
62904;DHT22;49000;50.698;13.322;2024-03-17T01:04:13;2.90;1.00
62904;DHT22;49000;50.698;13.322;2024-03-17T01:06:38;3.60;1.00
62904;DHT22;49000;50.698;13.322;2024-03-17T01:09:06;3.20;1.00
62904;DHT22;49000;50.698;13.322;2024-03-17T01:11:32;3.10;1.00
62904;DHT22;49000;50.698;13.322;2024-03-17T01:13:57;3.00;1.00
62904;DHT22;49000;50.698;13.322;2024-03-17T01:16:22;3.00;1.00
62904;DHT22;49000;50.698;13.322;2024-03-17T01:18:48;3.50;1.00
62904;DHT22;49000;50.698;13.322;2024-03-17T01:21:14;3.30;1.00
62904;DHT22;49000;50.698;13.322;2024-03-17T01:23:39;3.60;1.00
62904;DHT22;49000;50.698;13.322;2024-03-17T01:26:05;3.30;1.40
62904;DHT22;49000;50.698;13.322;2024-03-17T01:28:31;3.50;1.00
62904;DHT22;49000;50.698;13.322;2024-03-17T01:30:56;3.50;2.60
62904;DHT22;49000;50.698;13.322;2024-03-17T01:33:22;3.60;5.20
62904;DHT22;49000;50.698;13.322;2024-03-17T01:35:47;3.40;7.60
62904;DHT22;49000;50.698;13.322;2024-03-17T01:38:13;3.50;3.70
62904;DHT22;49000;50.698;13.322;2024-03-17T01:40:39;3.40;1.00
62904;DHT22;49000;50.698;13.322;2024-03-17T01:43:05;3.50;1.00
62904;DHT22;49000;50.698;13.322;2024-03-17T01:45:35;3.40;1.00
62904;DHT22;49000;50.698;13.322;2024-03-17T01:48:02;3.50;1.00
62904;DHT22;49000;50.698;13.322;2024-03-17T01:50:37;3.40;1.00
62904;DHT22;49000;50.698;13.322;2024-03-17T01:53:04;3.40;1.00
62904;DHT22;49000;50.698;13.322;2024-03-17T01:55:31;3.50;1.00
62904;DHT22;49000;50.698;13.322;2024-03-17T01:57:57;3.30;1.00
62904;DHT22;49000;50.698;13.322;2024-03-17T02:00:23;3.40;1.00
62904;DHT22;49000;50.698;13.322;2024-03-17T02:02:49;3.00;1.00
62904;DHT22;49000;50.698;13.322;2024-03-17T02:05:14;3.60;1.00
62904;DHT22;49000;50.698;13.322;2024-03-17T02:07:40;3.70;1.00
62904;DHT22;49000;50.698;13.322;2024-03-17T02:10:06;3.40;1.00
62904;DHT22;49000;50.698;13.322;2024-03-17T02:12:34;3.60;1.00
62904;DHT22;49000;50.698;13.322;2024-03-17T02:15:00;3.50;1.00
62904;DHT22;49000;50.698;13.322;2024-03-17T02:17:26;3.20;1.00
62904;DHT22;49000;50.698;13.322;2024-03-17T02:19:54;3.20;1.00
62904;DHT22;49000;50.698;13.322;2024-03-17T02:22:19;3.10;1.00
62904;DHT22;49000;50.698;13.322;2024-03-17T02:24:45;3.60;1.00
62904;DHT22;49000;50.698;13.322;2024-03-17T02:27:11;3.50;1.00
62904;DHT22;49000;50.698;13.322;2024-03-17T02:29:36;3.80;1.00
62904;DHT22;49000;50.698;13.322;2024-03-17T02:32:05;3.40;1.00
62904;DHT22;49000;50.698;13.322;2024-03-17T02:34:36;3.60;1.00
62904;DHT22;49000;50.698;13.322;2024-03-17T02:37:03;3.60;1.00
62904;DHT22;49000;50.698;13.322;2024-03-17T02:39:30;3.80;1.00
62904;DHT22;49000;50.698;13.322;2024-03-17T02:42:00;3.30;1.00
62904;DHT22;49000;50.698;13.322;2024-03-17T02:44:26;3.70;1.00
62904;DHT22;49000;50.698;13.322;2024-03-17T02:46:52;3.70;1.00
62904;DHT22;49000;50.698;13.322;2024-03-17T02:49:17;3.70;1.00
62904;DHT22;49000;50.698;13.322;2024-03-17T02:51:43;3.40;1.00
62904;DHT22;49000;50.698;13.322;2024-03-17T02:54:09;3.90;1.00
62904;DHT22;49000;50.698;13.322;2024-03-17T02:56:34;3.60;1.00
62904;DHT22;49000;50.698;13.322;2024-03-17T02:59:00;3.20;1.00
62904;DHT22;49000;50.698;13.322;2024-03-17T03:01:26;3.80;1.00
62904;DHT22;49000;50.698;13.322;2024-03-17T03:03:51;3.80;1.00
62904;DHT22;49000;50.698;13.322;2024-03-17T03:06:17;3.90;1.00
62904;DHT22;49000;50.698;13.322;2024-03-17T03:08:45;3.70;1.00
62904;DHT22;49000;50.698;13.322;2024-03-17T03:11:14;3.70;1.00
62904;DHT22;49000;50.698;13.322;2024-03-17T03:13:41;3.60;1.00
62904;DHT22;49000;50.698;13.322;2024-03-17T03:16:07;3.50;1.00
62904;DHT22;49000;50.698;13.322;2024-03-17T03:18:34;3.20;1.00
62904;DHT22;49000;50.698;13.322;2024-03-17T03:20:59;3.20;1.00
62904;DHT22;49000;50.698;13.322;2024-03-17T03:23:25;3.70;1.00
62904;DHT22;49000;50.698;13.322;2024-03-17T03:25:55;3.80;1.00
62904;DHT22;49000;50.698;13.322;2024-03-17T03:28:22;3.20;1.00
62904;DHT22;49000;50.698;13.322;2024-03-17T03:30:48;3.70;1.00
62904;DHT22;49000;50.698;13.322;2024-03-17T03:33:13;3.20;1.00
62904;DHT22;49000;50.698;13.322;2024-03-17T03:35:39;3.50;1.00
62904;DHT22;49000;50.698;13.322;2024-03-17T03:38:05;3.50;1.00
62904;DHT22;49000;50.698;13.322;2024-03-17T03:40:30;3.70;1.00
62904;DHT22;49000;50.698;13.322;2024-03-17T03:42:56;3.60;1.00
62904;DHT22;49000;50.698;13.322;2024-03-17T03:45:22;3.10;1.00
62904;DHT22;49000;50.698;13.322;2024-03-17T03:47:49;3.70;1.00
62904;DHT22;49000;50.698;13.322;2024-03-17T03:50:20;3.60;1.00
62904;DHT22;49000;50.698;13.322;2024-03-17T03:52:46;3.60;1.00
62904;DHT22;49000;50.698;13.322;2024-03-17T03:55:12;3.50;1.00
62904;DHT22;49000;50.698;13.322;2024-03-17T03:57:40;3.20;1.00
62904;DHT22;49000;50.698;13.322;2024-03-17T04:00:07;3.70;1.00
62904;DHT22;49000;50.698;13.322;2024-03-17T04:02:38;3.70;1.00
62904;DHT22;49000;50.698;13.322;2024-03-17T04:05:04;3.60;1.00
62904;DHT22;49000;50.698;13.322;2024-03-17T04:07:30;3.80;1.00
62904;DHT22;49000;50.698;13.322;2024-03-17T04:09:55;3.60;1.00
62904;DHT22;49000;50.698;13.322;2024-03-17T04:12:21;3.60;1.00
62904;DHT22;49000;50.698;13.322;2024-03-17T04:14:46;3.90;1.00
62904;DHT22;49000;50.698;13.322;2024-03-17T04:17:12;3.80;1.00
62904;DHT22;49000;50.698;13.322;2024-03-17T04:19:38;3.10;1.00
62904;DHT22;49000;50.698;13.322;2024-03-17T04:22:03;3.30;1.00
62904;DHT22;49000;50.698;13.322;2024-03-17T04:24:29;3.60;1.00
62904;DHT22;49000;50.698;13.322;2024-03-17T04:26:54;3.40;1.00
62904;DHT22;49000;50.698;13.322;2024-03-17T04:29:20;3.80;1.00
62904;DHT22;49000;50.698;13.322;2024-03-17T04:31:45;3.10;1.00
62904;DHT22;49000;50.698;13.322;2024-03-17T04:34:14;3.70;1.00
62904;DHT22;49000;50.698;13.322;2024-03-17T04:36:40;3.60;1.00
62904;DHT22;49000;50.698;13.322;2024-03-17T04:39:05;3.20;1.00
62904;DHT22;49000;50.698;13.322;2024-03-17T04:41:33;3.80;1.00
62904;DHT22;49000;50.698;13.322;2024-03-17T04:43:59;3.60;1.00
62904;DHT22;49000;50.698;13.322;2024-03-17T04:46:24;3.30;1.00
62904;DHT22;49000;50.698;13.322;2024-03-17T04:48:51;3.50;1.00
62904;DHT22;49000;50.698;13.322;2024-03-17T04:51:17;3.50;1.00
62904;DHT22;49000;50.698;13.322;2024-03-17T04:53:43;3.10;1.00
62904;DHT22;49000;50.698;13.322;2024-03-17T04:56:08;3.70;1.00
62904;DHT22;49000;50.698;13.322;2024-03-17T04:58:34;3.50;1.00
62904;DHT22;49000;50.698;13.322;2024-03-17T05:01:09;3.40;1.00
62904;DHT22;49000;50.698;13.322;2024-03-17T05:03:35;3.70;1.00
62904;DHT22;49000;50.698;13.322;2024-03-17T05:06:02;3.80;1.00
62904;DHT22;49000;50.698;13.322;2024-03-17T05:08:28;3.60;1.00
62904;DHT22;49000;50.698;13.322;2024-03-17T05:10:58;3.50;1.00
62904;DHT22;49000;50.698;13.322;2024-03-17T05:13:28;3.20;1.00
62904;DHT22;49000;50.698;13.322;2024-03-17T05:15:54;3.40;1.00
62904;DHT22;49000;50.698;13.322;2024-03-17T05:18:19;3.50;1.00
62904;DHT22;49000;50.698;13.322;2024-03-17T05:20:46;3.50;1.00
62904;DHT22;49000;50.698;13.322;2024-03-17T05:23:12;3.20;1.00
62904;DHT22;49000;50.698;13.322;2024-03-17T05:25:39;3.30;1.00
62904;DHT22;49000;50.698;13.322;2024-03-17T05:28:04;3.70;1.00
62904;DHT22;49000;50.698;13.322;2024-03-17T05:30:30;3.30;1.00
62904;DHT22;49000;50.698;13.322;2024-03-17T05:32:56;3.50;1.00
62904;DHT22;49000;50.698;13.322;2024-03-17T05:35:21;3.70;1.00
62904;DHT22;49000;50.698;13.322;2024-03-17T05:37:49;3.40;1.00
62904;DHT22;49000;50.698;13.322;2024-03-17T05:40:14;3.60;1.00
62904;DHT22;49000;50.698;13.322;2024-03-17T05:42:43;3.50;1.00
62904;DHT22;49000;50.698;13.322;2024-03-17T05:45:09;3.40;1.00
62904;DHT22;49000;50.698;13.322;2024-03-17T05:47:37;3.10;1.00
62904;DHT22;49000;50.698;13.322;2024-03-17T05:50:03;3.70;1.00
62904;DHT22;49000;50.698;13.322;2024-03-17T05:52:28;3.70;1.00
62904;DHT22;49000;50.698;13.322;2024-03-17T05:54:54;3.20;1.00
62904;DHT22;49000;50.698;13.322;2024-03-17T05:57:21;3.20;1.00
62904;DHT22;49000;50.698;13.322;2024-03-17T05:59:47;3.10;1.00
62904;DHT22;49000;50.698;13.322;2024-03-17T06:02:13;3.70;1.00
62904;DHT22;49000;50.698;13.322;2024-03-17T06:04:40;3.30;1.00
62904;DHT22;49000;50.698;13.322;2024-03-17T06:07:05;3.40;1.00
62904;DHT22;49000;50.698;13.322;2024-03-17T06:09:31;3.40;1.00
62904;DHT22;49000;50.698;13.322;2024-03-17T06:11:57;3.60;1.00
62904;DHT22;49000;50.698;13.322;2024-03-17T06:14:22;3.10;1.00
62904;DHT22;49000;50.698;13.322;2024-03-17T06:16:48;3.70;1.00
62904;DHT22;49000;50.698;13.322;2024-03-17T06:19:13;3.50;1.00
62904;DHT22;49000;50.698;13.322;2024-03-17T06:21:40;3.60;1.00
62904;DHT22;49000;50.698;13.322;2024-03-17T06:24:06;3.60;1.00
62904;DHT22;49000;50.698;13.322;2024-03-17T06:26:35;3.40;1.00
62904;DHT22;49000;50.698;13.322;2024-03-17T06:29:01;3.10;1.00
62904;DHT22;49000;50.698;13.322;2024-03-17T06:31:26;3.20;1.00
62904;DHT22;49000;50.698;13.322;2024-03-17T06:33:52;3.50;1.00
62904;DHT22;49000;50.698;13.322;2024-03-17T06:36:17;3.70;1.00
62904;DHT22;49000;50.698;13.322;2024-03-17T06:38:43;3.70;1.00
62904;DHT22;49000;50.698;13.322;2024-03-17T06:41:09;3.70;1.00
62904;DHT22;49000;50.698;13.322;2024-03-17T06:43:35;4.00;1.00
62904;DHT22;49000;50.698;13.322;2024-03-17T06:46:01;3.30;1.00
62904;DHT22;49000;50.698;13.322;2024-03-17T06:48:27;3.90;1.00
62904;DHT22;49000;50.698;13.322;2024-03-17T06:50:54;3.70;1.00
62904;DHT22;49000;50.698;13.322;2024-03-17T06:53:20;3.50;1.00
62904;DHT22;49000;50.698;13.322;2024-03-17T06:56:04;3.40;1.00
62904;DHT22;49000;50.698;13.322;2024-03-17T06:58:29;3.90;1.00
62904;DHT22;49000;50.698;13.322;2024-03-17T07:00:56;3.90;1.00
62904;DHT22;49000;50.698;13.322;2024-03-17T07:03:29;4.30;1.00
62904;DHT22;49000;50.698;13.322;2024-03-17T07:06:02;4.00;1.00
62904;DHT22;49000;50.698;13.322;2024-03-17T07:08:29;3.80;1.00
62904;DHT22;49000;50.698;13.322;2024-03-17T07:13:21;4.20;1.00
62904;DHT22;49000;50.698;13.322;2024-03-17T07:15:47;3.90;1.00
62904;DHT22;49000;50.698;13.322;2024-03-17T07:18:13;4.20;1.00
62904;DHT22;49000;50.698;13.322;2024-03-17T07:20:38;3.90;1.00
62904;DHT22;49000;50.698;13.322;2024-03-17T07:23:04;4.10;1.00
62904;DHT22;49000;50.698;13.322;2024-03-17T07:25:30;3.70;1.00
62904;DHT22;49000;50.698;13.322;2024-03-17T07:27:55;4.10;1.00
62904;DHT22;49000;50.698;13.322;2024-03-17T07:30:21;4.30;1.00
62904;DHT22;49000;50.698;13.322;2024-03-17T07:32:47;4.40;1.00
62904;DHT22;49000;50.698;13.322;2024-03-17T07:35:12;4.30;1.00
62904;DHT22;49000;50.698;13.322;2024-03-17T07:37:38;4.40;1.00
62904;DHT22;49000;50.698;13.322;2024-03-17T07:40:05;4.10;1.00
62904;DHT22;49000;50.698;13.322;2024-03-17T07:42:32;4.60;1.00
62904;DHT22;49000;50.698;13.322;2024-03-17T07:44:58;4.60;1.00
62904;DHT22;49000;50.698;13.322;2024-03-17T07:47:23;4.30;1.00
62904;DHT22;49000;50.698;13.322;2024-03-17T07:49:49;4.50;99.90
62904;DHT22;49000;50.698;13.322;2024-03-17T07:52:14;4.80;1.00
62904;DHT22;49000;50.698;13.322;2024-03-17T07:54:41;4.50;99.90
62904;DHT22;49000;50.698;13.322;2024-03-17T07:57:06;4.40;99.90
62904;DHT22;49000;50.698;13.322;2024-03-17T07:59:34;4.30;99.90
62904;DHT22;49000;50.698;13.322;2024-03-17T08:01:59;4.50;99.90
62904;DHT22;49000;50.698;13.322;2024-03-17T08:04:25;4.80;1.00
62904;DHT22;49000;50.698;13.322;2024-03-17T08:06:50;4.70;1.00
62904;DHT22;49000;50.698;13.322;2024-03-17T08:09:16;4.90;99.90
62904;DHT22;49000;50.698;13.322;2024-03-17T08:11:41;5.00;99.90
62904;DHT22;49000;50.698;13.322;2024-03-17T08:14:12;5.10;99.90
62904;DHT22;49000;50.698;13.322;2024-03-17T08:16:37;5.60;99.90
62904;DHT22;49000;50.698;13.322;2024-03-17T08:19:03;5.50;99.90
62904;DHT22;49000;50.698;13.322;2024-03-17T08:21:28;5.50;99.90
62904;DHT22;49000;50.698;13.322;2024-03-17T08:23:55;4.90;99.90
62904;DHT22;49000;50.698;13.322;2024-03-17T08:26:20;5.50;99.90
62904;DHT22;49000;50.698;13.322;2024-03-17T08:28:46;5.60;99.90
62904;DHT22;49000;50.698;13.322;2024-03-17T08:31:12;5.80;99.90
62904;DHT22;49000;50.698;13.322;2024-03-17T08:33:38;5.80;99.90
62904;DHT22;49000;50.698;13.322;2024-03-17T08:36:07;5.40;99.90
62904;DHT22;49000;50.698;13.322;2024-03-17T08:38:33;6.10;99.90
62904;DHT22;49000;50.698;13.322;2024-03-17T08:41:04;6.40;99.90
62904;DHT22;49000;50.698;13.322;2024-03-17T08:43:30;7.10;99.90
62904;DHT22;49000;50.698;13.322;2024-03-17T08:46:00;7.40;99.90
62904;DHT22;49000;50.698;13.322;2024-03-17T08:48:30;7.60;99.90
62904;DHT22;49000;50.698;13.322;2024-03-17T08:51:02;7.20;99.90
62904;DHT22;49000;50.698;13.322;2024-03-17T08:53:29;6.90;99.90
62904;DHT22;49000;50.698;13.322;2024-03-17T08:55:55;6.20;99.90
62904;DHT22;49000;50.698;13.322;2024-03-17T08:58:21;6.00;99.90
62904;DHT22;49000;50.698;13.322;2024-03-17T09:00:47;6.10;99.90
62904;DHT22;49000;50.698;13.322;2024-03-17T09:03:13;6.00;99.90
62904;DHT22;49000;50.698;13.322;2024-03-17T09:05:43;6.30;99.90
62904;DHT22;49000;50.698;13.322;2024-03-17T09:08:25;7.30;99.90
62904;DHT22;49000;50.698;13.322;2024-03-17T09:10:52;6.70;99.90
62904;DHT22;49000;50.698;13.322;2024-03-17T09:13:20;6.70;99.90
62904;DHT22;49000;50.698;13.322;2024-03-17T09:15:52;6.80;99.90
62904;DHT22;49000;50.698;13.322;2024-03-17T09:18:17;6.60;99.90
62904;DHT22;49000;50.698;13.322;2024-03-17T09:20:43;6.20;99.90
62904;DHT22;49000;50.698;13.322;2024-03-17T09:23:08;6.40;99.90
62904;DHT22;49000;50.698;13.322;2024-03-17T09:25:34;6.50;99.90
62904;DHT22;49000;50.698;13.322;2024-03-17T09:27:59;6.30;99.90
62904;DHT22;49000;50.698;13.322;2024-03-17T09:30:24;6.80;99.90
62904;DHT22;49000;50.698;13.322;2024-03-17T09:32:50;7.30;99.90
62904;DHT22;49000;50.698;13.322;2024-03-17T09:35:15;7.50;99.90
62904;DHT22;49000;50.698;13.322;2024-03-17T09:37:41;7.70;99.90
62904;DHT22;49000;50.698;13.322;2024-03-17T09:40:13;7.40;99.90
62904;DHT22;49000;50.698;13.322;2024-03-17T09:42:40;7.50;99.90
62904;DHT22;49000;50.698;13.322;2024-03-17T09:45:07;7.10;99.90
62904;DHT22;49000;50.698;13.322;2024-03-17T09:47:33;7.00;99.90
62904;DHT22;49000;50.698;13.322;2024-03-17T09:49:59;7.10;99.90
62904;DHT22;49000;50.698;13.322;2024-03-17T09:52:25;6.70;99.90
62904;DHT22;49000;50.698;13.322;2024-03-17T09:54:59;6.40;99.90
62904;DHT22;49000;50.698;13.322;2024-03-17T09:57:25;6.30;99.90
62904;DHT22;49000;50.698;13.322;2024-03-17T09:59:52;6.10;99.90
62904;DHT22;49000;50.698;13.322;2024-03-17T10:02:18;6.20;99.90
62904;DHT22;49000;50.698;13.322;2024-03-17T10:04:44;6.60;99.90
62904;DHT22;49000;50.698;13.322;2024-03-17T10:07:09;7.20;99.90
62904;DHT22;49000;50.698;13.322;2024-03-17T10:09:35;7.60;99.90
62904;DHT22;49000;50.698;13.322;2024-03-17T10:12:01;7.80;99.90
62904;DHT22;49000;50.698;13.322;2024-03-17T10:14:27;7.70;99.90
62904;DHT22;49000;50.698;13.322;2024-03-17T10:16:53;7.40;99.90
62904;DHT22;49000;50.698;13.322;2024-03-17T10:19:22;7.20;99.90
62904;DHT22;49000;50.698;13.322;2024-03-17T10:21:48;7.10;99.90
62904;DHT22;49000;50.698;13.322;2024-03-17T10:29:36;7.80;99.90
62904;DHT22;49000;50.698;13.322;2024-03-17T10:32:12;7.60;99.90
62904;DHT22;49000;50.698;13.322;2024-03-17T10:34:38;7.30;99.90
62904;DHT22;49000;50.698;13.322;2024-03-17T10:37:14;7.80;99.90
62904;DHT22;49000;50.698;13.322;2024-03-17T10:39:43;8.30;99.90
62904;DHT22;49000;50.698;13.322;2024-03-17T10:42:11;9.00;99.90
62904;DHT22;49000;50.698;13.322;2024-03-17T10:44:38;9.10;99.90
62904;DHT22;49000;50.698;13.322;2024-03-17T10:47:05;9.10;99.90
62904;DHT22;49000;50.698;13.322;2024-03-17T10:49:37;8.70;99.90
62904;DHT22;49000;50.698;13.322;2024-03-17T10:52:08;8.40;99.90
62904;DHT22;49000;50.698;13.322;2024-03-17T10:54:40;7.90;99.90
62904;DHT22;49000;50.698;13.322;2024-03-17T11:00:04;7.90;99.90
62904;DHT22;49000;50.698;13.322;2024-03-17T11:02:31;8.10;99.90
62904;DHT22;49000;50.698;13.322;2024-03-17T11:05:05;8.60;99.90
62904;DHT22;49000;50.698;13.322;2024-03-17T11:07:33;8.60;99.90
62904;DHT22;49000;50.698;13.322;2024-03-17T11:10:02;8.60;99.90
62904;DHT22;49000;50.698;13.322;2024-03-17T11:20:36;9.40;99.90
62904;DHT22;49000;50.698;13.322;2024-03-17T11:23:03;9.50;99.90
62904;DHT22;49000;50.698;13.322;2024-03-17T11:28:03;9.50;99.90
62904;DHT22;49000;50.698;13.322;2024-03-17T11:38:54;10.20;99.90
62904;DHT22;49000;50.698;13.322;2024-03-17T11:41:37;10.40;99.90
62904;DHT22;49000;50.698;13.322;2024-03-17T11:47:03;10.40;99.90
62904;DHT22;49000;50.698;13.322;2024-03-17T11:49:39;10.10;99.90
62904;DHT22;49000;50.698;13.322;2024-03-17T11:52:10;9.90;99.90
62904;DHT22;49000;50.698;13.322;2024-03-17T11:54:38;10.00;99.90
62904;DHT22;49000;50.698;13.322;2024-03-17T11:57:06;10.40;99.90
62904;DHT22;49000;50.698;13.322;2024-03-17T11:59:32;10.50;99.90
62904;DHT22;49000;50.698;13.322;2024-03-17T12:01:58;10.70;99.90
62904;DHT22;49000;50.698;13.322;2024-03-17T12:04:25;10.90;99.90
62904;DHT22;49000;50.698;13.322;2024-03-17T12:06:52;11.00;99.90
62904;DHT22;49000;50.698;13.322;2024-03-17T12:09:21;11.10;99.80
62904;DHT22;49000;50.698;13.322;2024-03-17T12:11:48;11.20;99.90
62904;DHT22;49000;50.698;13.322;2024-03-17T12:14:18;11.30;99.90
62904;DHT22;49000;50.698;13.322;2024-03-17T12:16:51;11.10;99.90
62904;DHT22;49000;50.698;13.322;2024-03-17T12:19:17;11.00;99.90
62904;DHT22;49000;50.698;13.322;2024-03-17T12:21:45;10.10;99.90
62904;DHT22;49000;50.698;13.322;2024-03-17T12:24:19;10.00;99.90
62904;DHT22;49000;50.698;13.322;2024-03-17T12:26:46;10.10;99.90
62904;DHT22;49000;50.698;13.322;2024-03-17T12:31:51;9.60;99.90
62904;DHT22;49000;50.698;13.322;2024-03-17T12:34:20;10.10;99.90
62904;DHT22;49000;50.698;13.322;2024-03-17T12:36:46;10.80;99.90
62904;DHT22;49000;50.698;13.322;2024-03-17T12:39:23;11.40;99.90
62904;DHT22;49000;50.698;13.322;2024-03-17T12:42:05;11.60;99.90
62904;DHT22;49000;50.698;13.322;2024-03-17T12:44:33;11.50;97.60
62904;DHT22;49000;50.698;13.322;2024-03-17T12:47:00;11.70;96.30
62904;DHT22;49000;50.698;13.322;2024-03-17T12:49:27;11.30;91.00
62904;DHT22;49000;50.698;13.322;2024-03-17T12:51:53;10.90;72.10
62904;DHT22;49000;50.698;13.322;2024-03-17T12:54:20;10.50;80.40
62904;DHT22;49000;50.698;13.322;2024-03-17T12:56:46;10.80;80.50
62904;DHT22;49000;50.698;13.322;2024-03-17T12:59:41;11.10;97.00
62904;DHT22;49000;50.698;13.322;2024-03-17T13:02:25;11.80;99.80
62904;DHT22;49000;50.698;13.322;2024-03-17T13:05:10;12.30;75.90
62904;DHT22;49000;50.698;13.322;2024-03-17T13:07:38;12.30;73.40
62904;DHT22;49000;50.698;13.322;2024-03-17T13:10:04;12.20;70.20
62904;DHT22;49000;50.698;13.322;2024-03-17T13:12:35;12.10;76.90
62904;DHT22;49000;50.698;13.322;2024-03-17T13:15:01;11.90;91.20
62904;DHT22;49000;50.698;13.322;2024-03-17T13:17:27;11.70;81.40
62904;DHT22;49000;50.698;13.322;2024-03-17T13:19:54;11.70;91.00
62904;DHT22;49000;50.698;13.322;2024-03-17T13:22:20;12.40;99.90
62904;DHT22;49000;50.698;13.322;2024-03-17T13:24:45;12.90;94.00
62904;DHT22;49000;50.698;13.322;2024-03-17T13:27:12;12.70;72.30
62904;DHT22;49000;50.698;13.322;2024-03-17T13:29:39;12.30;75.00
62904;DHT22;49000;50.698;13.322;2024-03-17T13:32:09;11.70;67.60
62904;DHT22;49000;50.698;13.322;2024-03-17T13:34:34;11.60;70.90
62904;DHT22;49000;50.698;13.322;2024-03-17T13:37:00;12.20;89.30
62904;DHT22;49000;50.698;13.322;2024-03-17T13:39:30;13.20;73.40
62904;DHT22;49000;50.698;13.322;2024-03-17T13:41:59;13.10;59.30
62904;DHT22;49000;50.698;13.322;2024-03-17T13:44:31;13.10;67.60
62904;DHT22;49000;50.698;13.322;2024-03-17T13:46:58;13.40;72.30
62904;DHT22;49000;50.698;13.322;2024-03-17T13:49:24;13.50;63.50
62904;DHT22;49000;50.698;13.322;2024-03-17T13:51:50;14.00;74.80
62904;DHT22;49000;50.698;13.322;2024-03-17T13:54:15;14.30;90.20
62904;DHT22;49000;50.698;13.322;2024-03-17T13:56:41;14.90;58.40
62904;DHT22;49000;50.698;13.322;2024-03-17T13:59:06;14.30;42.40
62904;DHT22;49000;50.698;13.322;2024-03-17T14:01:32;13.60;1.00
62904;DHT22;49000;50.698;13.322;2024-03-17T14:03:58;13.60;1.00
62904;DHT22;49000;50.698;13.322;2024-03-17T14:06:23;14.50;75.50
62904;DHT22;49000;50.698;13.322;2024-03-17T14:08:49;15.30;53.40
62904;DHT22;49000;50.698;13.322;2024-03-17T14:11:15;15.00;1.00
62904;DHT22;49000;50.698;13.322;2024-03-17T14:13:40;14.80;1.00
62904;DHT22;49000;50.698;13.322;2024-03-17T14:16:06;15.00;76.60
62904;DHT22;49000;50.698;13.322;2024-03-17T14:18:32;15.80;59.80
62904;DHT22;49000;50.698;13.322;2024-03-17T14:20:58;15.70;1.00
62904;DHT22;49000;50.698;13.322;2024-03-17T14:23:24;15.00;1.00
62904;DHT22;49000;50.698;13.322;2024-03-17T14:25:50;15.10;1.00
62904;DHT22;49000;50.698;13.322;2024-03-17T14:28:15;15.80;1.00
62904;DHT22;49000;50.698;13.322;2024-03-17T14:30:41;15.80;1.00
62904;DHT22;49000;50.698;13.322;2024-03-17T14:33:06;14.90;1.00
62904;DHT22;49000;50.698;13.322;2024-03-17T14:35:33;15.30;1.00
62904;DHT22;49000;50.698;13.322;2024-03-17T14:37:58;14.80;1.00
62904;DHT22;49000;50.698;13.322;2024-03-17T14:40:25;14.60;1.00
62904;DHT22;49000;50.698;13.322;2024-03-17T14:42:54;15.10;1.00
62904;DHT22;49000;50.698;13.322;2024-03-17T14:45:21;15.10;1.00
62904;DHT22;49000;50.698;13.322;2024-03-17T14:47:49;14.80;1.00
62904;DHT22;49000;50.698;13.322;2024-03-17T14:50:14;14.40;1.00
62904;DHT22;49000;50.698;13.322;2024-03-17T14:52:41;14.10;1.00
62904;DHT22;49000;50.698;13.322;2024-03-17T14:55:08;14.10;1.00
62904;DHT22;49000;50.698;13.322;2024-03-17T14:57:40;13.90;1.00
62904;DHT22;49000;50.698;13.322;2024-03-17T15:00:11;14.50;1.00
62904;DHT22;49000;50.698;13.322;2024-03-17T15:02:44;15.10;1.00
62904;DHT22;49000;50.698;13.322;2024-03-17T15:05:11;14.60;1.00
62904;DHT22;49000;50.698;13.322;2024-03-17T15:07:36;13.80;1.00
62904;DHT22;49000;50.698;13.322;2024-03-17T15:10:03;14.10;1.00
62904;DHT22;49000;50.698;13.322;2024-03-17T15:12:29;13.80;1.00
62904;DHT22;49000;50.698;13.322;2024-03-17T15:14:54;14.40;1.00
62904;DHT22;49000;50.698;13.322;2024-03-17T15:17:20;14.90;1.00
62904;DHT22;49000;50.698;13.322;2024-03-17T15:19:46;15.10;1.00
62904;DHT22;49000;50.698;13.322;2024-03-17T15:22:12;14.90;1.00
62904;DHT22;49000;50.698;13.322;2024-03-17T15:24:37;13.90;1.00
62904;DHT22;49000;50.698;13.322;2024-03-17T15:27:03;12.80;1.00
62904;DHT22;49000;50.698;13.322;2024-03-17T15:29:28;12.10;1.00
62904;DHT22;49000;50.698;13.322;2024-03-17T15:31:54;11.70;1.00
62904;DHT22;49000;50.698;13.322;2024-03-17T15:34:19;11.90;1.00
62904;DHT22;49000;50.698;13.322;2024-03-17T15:36:45;12.30;1.00
62904;DHT22;49000;50.698;13.322;2024-03-17T15:39:10;12.40;1.00
62904;DHT22;49000;50.698;13.322;2024-03-17T15:41:39;12.50;1.00
62904;DHT22;49000;50.698;13.322;2024-03-17T15:44:04;12.70;1.00
62904;DHT22;49000;50.698;13.322;2024-03-17T15:46:29;12.70;1.00
62904;DHT22;49000;50.698;13.322;2024-03-17T15:48:55;12.80;1.00
62904;DHT22;49000;50.698;13.322;2024-03-17T15:51:21;12.80;1.00
62904;DHT22;49000;50.698;13.322;2024-03-17T15:53:47;12.70;1.00
62904;DHT22;49000;50.698;13.322;2024-03-17T15:56:13;12.40;1.00
62904;DHT22;49000;50.698;13.322;2024-03-17T15:58:38;11.90;1.00
62904;DHT22;49000;50.698;13.322;2024-03-17T16:01:07;11.90;1.00
62904;DHT22;49000;50.698;13.322;2024-03-17T16:03:38;11.70;1.00
62904;DHT22;49000;50.698;13.322;2024-03-17T16:06:09;11.20;1.00
62904;DHT22;49000;50.698;13.322;2024-03-17T16:08:40;11.00;1.00